createdAt,value
2022-09-29T00:29:22.974Z,0
2022-09-29T00:30:03.118Z,0
2022-09-29T00:30:43.625Z,0
2022-09-29T00:31:24.139Z,0
2022-09-29T00:32:04.717Z,0
2022-09-29T00:32:45.082Z,0
2022-09-29T00:33:25.500Z,0
2022-09-29T00:34:05.981Z,0
2022-09-29T00:34:46.442Z,0
2022-09-29T00:35:26.980Z,0
2022-09-29T00:36:07.527Z,0
2022-09-29T00:36:48.044Z,0
2022-09-29T00:42:52.899Z,0
2022-09-29T00:43:33.363Z,0
2022-09-29T00:44:13.859Z,0
2022-09-29T00:44:54.487Z,0
2022-09-29T00:45:35.128Z,0
2022-09-29T00:46:15.662Z,0
2022-09-29T00:46:56.064Z,0
2022-09-29T00:47:36.547Z,0
2022-09-29T00:48:57.534Z,0
2022-09-29T00:49:38.052Z,0
2022-09-29T00:56:23.230Z,0
2022-09-29T00:57:03.526Z,0
2022-09-29T00:57:44.061Z,0
2022-09-29T00:58:24.531Z,0
2022-09-29T00:59:05.034Z,0
2022-09-29T00:59:45.496Z,0
2022-09-29T01:00:26.099Z,0
2022-09-29T01:03:19.264Z,0
2022-09-29T01:03:59.728Z,0
2022-09-29T01:04:40.219Z,0
2022-09-29T01:05:20.677Z,0
2022-09-29T01:06:01.194Z,0
2022-09-29T01:06:41.650Z,0
2022-09-29T01:07:22.136Z,0
2022-09-29T01:08:02.620Z,0
2022-09-29T01:08:43.063Z,0
2022-09-29T01:09:23.555Z,0
2022-09-29T01:10:04.044Z,0
2022-09-29T01:17:29.314Z,0
2022-09-29T01:18:09.788Z,0
2022-09-29T01:18:50.250Z,0
2022-09-29T01:19:30.729Z,0
2022-09-29T01:20:11.224Z,0
2022-09-29T01:20:51.699Z,0
2022-09-29T01:21:32.213Z,0
2022-09-29T01:22:12.739Z,0
2022-09-29T01:22:53.248Z,0
2022-09-29T01:23:33.771Z,0
2022-09-29T01:24:14.271Z,0
2022-09-29T01:30:19.298Z,0
2022-09-29T01:30:59.792Z,0
2022-09-29T01:31:40.333Z,0
2022-09-29T01:32:20.716Z,0
2022-09-29T01:33:01.197Z,0
2022-09-29T01:33:41.688Z,0
2022-09-29T01:34:22.145Z,0
2022-09-29T01:35:02.569Z,0
2022-09-29T01:35:43.040Z,0
2022-09-29T01:36:23.508Z,0
2022-09-29T01:37:04.045Z,0
2022-09-29T01:43:48.953Z,0
2022-09-29T01:44:29.461Z,0
2022-09-29T01:45:09.946Z,0
2022-09-29T01:45:50.516Z,0
2022-09-29T01:46:30.911Z,0
2022-09-29T01:47:11.411Z,0
2022-09-29T01:47:51.935Z,0
2022-09-29T01:48:32.422Z,0
2022-09-29T01:49:12.951Z,0
2022-09-29T01:49:53.391Z,0
2022-09-29T01:50:33.898Z,0
2022-09-29T01:57:59.276Z,0
2022-09-29T01:58:39.696Z,0
2022-09-29T01:59:20.166Z,0
2022-09-29T02:00:00.643Z,0
2022-09-29T02:00:41.213Z,0
2022-09-29T02:01:21.640Z,0
2022-09-29T02:02:02.073Z,0
2022-09-29T02:02:42.709Z,0
2022-09-29T02:03:23.588Z,0
2022-09-29T02:04:04.047Z,0
2022-09-29T02:10:49.015Z,0
2022-09-29T02:11:29.549Z,0
2022-09-29T02:12:10.042Z,0
2022-09-29T02:12:50.484Z,0
2022-09-29T02:13:30.964Z,0
2022-09-29T02:14:12.259Z,0
2022-09-29T02:14:52.669Z,0
2022-09-29T02:15:33.173Z,0
2022-09-29T02:16:13.670Z,0
2022-09-29T02:16:54.146Z,0
2022-09-29T02:24:19.478Z,0
2022-09-29T02:24:59.874Z,0
2022-09-29T02:25:40.367Z,0
2022-09-29T02:26:20.853Z,0
2022-09-29T02:27:01.344Z,0
2022-09-29T02:28:22.296Z,0
2022-09-29T02:29:02.733Z,0
2022-09-29T02:29:43.215Z,0
2022-09-29T02:30:23.712Z,0
2022-09-29T02:31:04.274Z,0
2022-09-29T02:36:29.020Z,0
2022-09-29T02:37:09.526Z,0
2022-09-29T02:37:50.015Z,0
2022-09-29T02:38:30.479Z,0
2022-09-29T02:39:11.023Z,0
2022-09-29T02:39:51.491Z,0
2022-09-29T02:40:32.027Z,0
2022-09-29T02:41:12.466Z,0
2022-09-29T02:41:53.001Z,0
2022-09-29T02:42:33.448Z,0
2022-09-29T02:43:13.954Z,0
2022-09-29T02:50:39.204Z,0
2022-09-29T02:51:19.696Z,0
2022-09-29T02:52:00.168Z,0
2022-09-29T02:52:40.659Z,0
2022-09-29T02:54:44.580Z,0
2022-09-29T02:55:26.045Z,0
2022-09-29T02:56:06.531Z,0
2022-09-29T02:56:46.987Z,0
2022-09-29T03:05:50.582Z,0
2022-09-29T03:06:31.007Z,0
2022-09-29T03:07:11.481Z,0
2022-09-29T03:07:51.939Z,0
2022-09-29T03:08:32.486Z,0
2022-09-29T03:09:12.972Z,0
2022-09-29T03:10:33.942Z,0
2022-09-29T03:11:14.372Z,0
2022-09-29T03:11:54.832Z,0
2022-09-29T03:19:20.713Z,0
2022-09-29T03:20:01.218Z,0
2022-09-29T03:20:41.697Z,0
2022-09-29T03:21:22.258Z,0
2022-09-29T03:22:02.672Z,0
2022-09-29T03:22:43.173Z,0
2022-09-29T03:23:23.649Z,0
2022-09-29T03:24:04.096Z,0
2022-09-29T03:24:44.580Z,0
2022-09-29T03:25:25.083Z,0
2022-09-29T03:26:05.569Z,0
2022-09-29T03:32:10.694Z,0
2022-09-29T03:32:51.155Z,0
2022-09-29T03:33:31.662Z,0
2022-09-29T03:34:12.072Z,0
2022-09-29T03:34:52.572Z,0
2022-09-29T03:35:33.076Z,0
2022-09-29T03:36:13.559Z,0
2022-09-29T03:36:54.047Z,0
2022-09-29T03:37:34.478Z,0
2022-09-29T03:38:15.028Z,0
2022-09-29T03:38:55.468Z,0
2022-09-29T03:45:40.744Z,0
2022-09-29T03:46:20.982Z,0
2022-09-29T03:47:01.478Z,0
2022-09-29T03:47:41.925Z,0
2022-09-29T03:48:24.229Z,0
2022-09-29T03:49:02.934Z,0
2022-09-29T03:49:43.406Z,0
2022-09-29T03:50:23.864Z,0
2022-09-29T03:51:04.367Z,0
2022-09-29T03:51:44.846Z,0
2022-09-29T03:52:26.300Z,0
2022-09-29T03:59:50.637Z,0
2022-09-29T04:00:31.113Z,0
2022-09-29T04:01:11.776Z,0
2022-09-29T04:01:52.093Z,0
2022-09-29T04:02:32.596Z,0
2022-09-29T04:03:13.086Z,0
2022-09-29T04:03:53.534Z,0
2022-09-29T04:04:34.011Z,0
2022-09-29T04:05:14.518Z,0
2022-09-29T04:05:55.006Z,0
2022-09-29T04:06:35.561Z,0
2022-09-29T04:12:00.337Z,0
2022-09-29T04:12:40.743Z,0
2022-09-29T04:13:21.252Z,0
2022-09-29T04:14:01.769Z,0
2022-09-29T04:14:42.192Z,0
2022-09-29T04:15:22.647Z,0
2022-09-29T04:16:03.351Z,0
2022-09-29T04:16:43.713Z,0
2022-09-29T04:17:24.186Z,0
2022-09-29T04:18:04.679Z,0
2022-09-29T04:18:45.340Z,0
2022-09-29T04:26:10.632Z,0
2022-09-29T04:26:51.141Z,0
2022-09-29T04:27:31.642Z,0
2022-09-29T04:28:12.155Z,0
2022-09-29T04:28:52.630Z,0
2022-09-29T04:29:33.110Z,0
2022-09-29T04:30:13.611Z,0
2022-09-29T04:30:54.126Z,0
2022-09-29T04:31:34.673Z,0
2022-09-29T04:32:15.184Z,0
2022-09-29T04:39:40.307Z,0
2022-09-29T04:40:20.801Z,0
2022-09-29T04:41:01.304Z,0
2022-09-29T04:41:41.711Z,0
2022-09-29T04:42:22.181Z,0
2022-09-29T04:43:02.687Z,0
2022-09-29T04:43:43.166Z,0
2022-09-29T04:44:23.676Z,0
2022-09-29T04:45:04.157Z,0
2022-09-29T04:45:44.615Z,0
2022-09-29T04:46:25.039Z,0
2022-09-29T04:53:50.288Z,0
2022-09-29T04:54:34.179Z,0
2022-09-29T04:55:11.325Z,0
2022-09-29T04:55:51.851Z,0
2022-09-29T04:57:12.912Z,0
2022-09-29T04:57:53.381Z,0
2022-09-29T04:58:33.905Z,0
2022-09-29T04:59:14.862Z,0
2022-09-29T04:59:55.277Z,0
2022-09-29T05:06:40.334Z,4
2022-09-29T05:07:20.713Z,4
2022-09-29T05:08:01.250Z,4
2022-09-29T05:08:41.743Z,4
2022-09-29T05:10:02.859Z,4
2022-09-29T05:10:43.347Z,4
2022-09-29T05:11:23.831Z,8
2022-09-29T05:12:04.357Z,8
2022-09-29T05:12:44.778Z,12
2022-09-29T05:13:25.259Z,12
2022-09-29T05:21:05.092Z,36
2022-09-29T05:21:31.204Z,40
2022-09-29T05:22:11.695Z,44
2022-09-29T05:22:53.716Z,44
2022-09-29T05:23:34.263Z,56
2022-09-29T05:25:48.125Z,64
2022-09-29T05:26:28.623Z,68
2022-09-29T05:27:09.182Z,72
2022-09-29T05:27:49.733Z,80
2022-09-29T05:28:30.128Z,80
2022-09-29T05:29:10.610Z,84
2022-09-29T05:29:51.897Z,88
2022-09-29T05:30:32.334Z,96
2022-09-29T05:31:12.892Z,100
2022-09-29T05:37:57.910Z,188
2022-09-29T05:38:38.443Z,196
2022-09-29T05:39:18.998Z,208
2022-09-29T05:39:59.392Z,220
2022-09-29T05:40:39.880Z,232
2022-09-29T05:41:20.409Z,248
2022-09-29T05:42:00.949Z,260
2022-09-29T05:42:41.413Z,276
2022-09-29T05:43:21.879Z,292
2022-09-29T05:44:02.377Z,304
2022-09-29T05:44:42.894Z,324
2022-09-29T05:49:30.326Z,548
2022-09-29T05:50:10.853Z,596
2022-09-29T05:50:51.425Z,672
2022-09-29T05:51:31.950Z,720
2022-09-29T05:52:12.424Z,736
2022-09-29T06:32:19.109Z,6892
2022-09-29T06:33:00.044Z,6944
2022-09-29T06:33:41.026Z,7040
2022-09-29T06:34:22.046Z,6972
2022-09-29T06:35:03.064Z,6892
2022-09-29T06:35:44.031Z,6632
2022-09-29T06:40:25.704Z,6932
2022-09-29T06:41:06.291Z,7728
2022-09-29T06:41:46.883Z,8004
2022-09-29T06:42:28.068Z,8188
2022-09-29T06:43:08.586Z,8048
2022-09-29T06:44:29.671Z,7400
2022-09-29T06:45:10.105Z,7784
2022-09-29T06:45:50.606Z,7976
2022-09-29T06:52:29.136Z,4688
2022-09-29T06:53:06.391Z,4632
2022-09-29T06:53:47.391Z,4432
2022-09-29T06:54:27.914Z,5848
2022-09-29T06:55:08.400Z,5968
2022-09-29T06:55:48.900Z,7960
2022-09-29T06:59:54.113Z,4808
2022-09-29T07:02:11.924Z,5552
2022-09-29T07:02:52.428Z,5496
2022-09-29T07:03:32.969Z,5248
2022-09-29T07:05:57.277Z,4964
2022-09-29T07:06:30.548Z,4768
2022-09-29T07:07:12.620Z,3580
2022-09-29T07:07:56.475Z,4352
2022-09-29T07:10:39.458Z,3192
2022-09-29T07:12:01.708Z,3032
2022-09-29T07:12:42.766Z,3336
2022-09-29T07:14:53.379Z,3144
2022-09-29T07:15:33.888Z,2796
2022-09-29T07:16:14.379Z,3164
2022-09-29T07:16:55.601Z,3232
2022-09-29T07:17:36.054Z,3200
2022-09-29T07:18:16.814Z,2884
2022-09-29T07:18:57.421Z,2672
2022-09-29T07:25:58.159Z,2616
2022-09-29T07:26:23.160Z,3084
2022-09-29T07:27:03.653Z,3256
2022-09-29T07:27:44.159Z,3300
2022-09-29T07:28:24.781Z,3336
2022-09-29T07:29:05.322Z,3428
2022-09-29T07:29:55.968Z,3884
2022-09-29T07:30:36.982Z,3864
2022-09-29T07:31:14.010Z,3936
2022-09-29T07:31:51.784Z,3932
2022-09-29T07:37:12.941Z,2604
2022-09-29T07:37:53.528Z,2556
2022-09-29T07:38:34.047Z,2532
2022-09-29T07:42:07.286Z,2424
2022-09-29T07:42:45.337Z,2392
2022-09-29T07:43:25.809Z,2368
2022-09-29T07:44:06.329Z,2348
2022-09-29T07:44:50.178Z,2324
2022-09-29T07:45:27.480Z,2300
2022-09-29T07:46:08.024Z,2276
2022-09-29T07:46:48.447Z,2268
2022-09-29T07:53:33.681Z,2208
2022-09-29T07:54:14.227Z,2180
2022-09-29T07:54:54.925Z,2156
2022-09-29T07:55:35.353Z,2124
2022-09-29T07:56:15.944Z,2112
2022-09-29T07:56:56.392Z,2120
2022-09-29T07:57:36.854Z,2112
2022-09-29T07:58:17.330Z,2104
2022-09-29T07:58:57.910Z,2096
2022-09-29T07:59:42.314Z,2092
2022-09-29T08:03:58.083Z,2100
2022-09-29T08:04:39.452Z,2108
2022-09-29T08:05:20.000Z,2108
2022-09-29T08:06:00.510Z,2100
2022-09-29T08:06:41.026Z,2076
2022-09-29T08:07:22.224Z,2068
2022-09-29T08:08:02.773Z,2064
2022-09-29T08:14:47.973Z,1956
2022-09-29T08:15:28.550Z,1944
2022-09-29T08:16:09.050Z,1936
2022-09-29T08:16:49.643Z,1924
2022-09-29T08:17:30.108Z,1912
2022-09-29T08:18:10.634Z,1908
2022-09-29T08:18:51.188Z,1896
2022-09-29T08:19:31.616Z,1888
2022-09-29T08:20:12.208Z,1876
2022-09-29T08:20:52.766Z,1868
2022-09-29T08:27:47.739Z,1792
2022-09-29T08:28:28.518Z,1788
2022-09-29T08:29:07.348Z,1780
2022-09-29T08:29:46.083Z,1776
2022-09-29T08:30:20.223Z,1768
2022-09-29T08:31:04.098Z,1760
2022-09-29T08:31:41.403Z,1752
2022-09-29T08:32:21.994Z,1752
2022-09-29T08:33:02.422Z,1748
2022-09-29T08:36:47.585Z,1724
2022-09-29T08:37:30.063Z,1720
2022-09-29T08:38:08.674Z,1708
2022-09-29T08:38:49.179Z,1700
2022-09-29T08:39:29.701Z,1696
2022-09-29T08:40:10.182Z,1688
2022-09-29T08:40:50.784Z,1672
2022-09-29T08:41:31.263Z,1668
2022-09-29T08:42:11.796Z,1664
2022-09-29T08:47:45.440Z,1608
2022-09-29T08:48:23.027Z,1584
2022-09-29T08:48:58.978Z,1572
2022-09-29T08:49:44.381Z,1560
2022-09-29T08:51:07.468Z,1576
2022-09-29T08:51:48.012Z,1600
2022-09-29T08:52:28.661Z,1604
2022-09-29T08:53:20.141Z,1608
2022-09-29T08:53:58.638Z,1608
2022-09-29T08:54:38.292Z,1608
2022-09-29T08:55:18.895Z,1608
2022-09-29T08:55:51.081Z,1604
2022-09-29T08:56:32.104Z,1600
2022-09-29T08:57:12.611Z,1600
2022-09-29T09:02:37.790Z,1560
2022-09-29T09:04:50.776Z,1560
2022-09-29T09:05:31.277Z,1564
2022-09-29T09:06:12.865Z,1572
2022-09-29T09:06:54.164Z,1576
2022-09-29T09:07:34.668Z,1580
2022-09-29T09:08:15.233Z,1572
2022-09-29T09:15:29.724Z,1508
2022-09-29T09:16:10.012Z,1500
2022-09-29T09:16:50.619Z,1476
2022-09-29T09:17:31.217Z,1484
2022-09-29T09:18:11.798Z,1468
2022-09-29T09:18:52.285Z,1444
2022-09-29T09:19:32.770Z,1428
2022-09-29T09:20:13.292Z,1456
2022-09-29T09:20:53.823Z,1460
2022-09-29T09:24:33.458Z,1400
2022-09-29T09:25:13.753Z,1392
2022-09-29T09:25:54.384Z,1412
2022-09-29T09:26:34.893Z,1396
2022-09-29T09:27:15.391Z,1368
2022-09-29T09:30:49.664Z,1308
2022-09-29T09:31:30.245Z,1284
2022-09-29T09:32:10.743Z,1308
2022-09-29T09:32:51.381Z,1340
2022-09-29T09:33:32.134Z,1336
2022-09-29T09:34:12.507Z,1344
2022-09-29T09:34:55.596Z,1352
2022-09-29T09:42:19.694Z,1360
2022-09-29T09:43:00.204Z,1368
2022-09-29T09:43:40.796Z,1376
2022-09-29T09:44:21.481Z,1364
2022-09-29T09:45:01.817Z,1336
2022-09-29T09:45:42.408Z,1320
2022-09-29T09:46:22.939Z,1324
2022-09-29T09:48:36.333Z,1324
2022-09-29T09:49:16.852Z,1320
2022-09-29T09:49:57.352Z,1316
2022-09-29T09:50:37.890Z,1300
2022-09-29T09:51:18.438Z,1300
2022-09-29T09:53:34.779Z,1320
2022-09-29T09:54:16.107Z,1312
2022-09-29T09:54:57.207Z,1312
2022-09-29T09:55:37.717Z,1312
2022-09-29T09:56:18.251Z,1312
2022-09-29T09:56:58.754Z,1312
2022-09-29T09:57:39.302Z,1312
2022-09-29T09:58:19.897Z,1308
2022-09-29T10:03:44.972Z,1316
2022-09-29T10:04:25.586Z,1308
2022-09-29T10:05:07.503Z,1308
2022-09-29T10:05:46.684Z,1308
2022-09-29T10:06:27.632Z,1304
2022-09-29T10:07:08.192Z,1300
2022-09-29T10:07:48.815Z,1292
2022-09-29T10:08:29.745Z,1284
2022-09-29T10:13:54.607Z,1292
2022-09-29T10:14:35.161Z,1300
2022-09-29T10:15:15.692Z,1300
2022-09-29T10:15:56.210Z,1300
2022-09-29T10:16:36.671Z,1308
2022-09-29T10:20:11.179Z,1280
2022-09-29T10:20:51.647Z,1308
2022-09-29T10:21:32.188Z,1252
2022-09-29T10:22:12.779Z,1256
2022-09-29T10:22:53.196Z,1244
2022-09-29T10:23:33.772Z,1192
2022-09-29T10:24:14.404Z,1188
2022-09-29T10:24:55.512Z,1220
2022-09-29T10:29:42.355Z,1244
2022-09-29T10:33:11.194Z,1352
2022-09-29T10:33:51.179Z,1364
2022-09-29T10:34:31.640Z,1400
2022-09-29T10:35:12.119Z,1432
2022-09-29T10:35:52.625Z,1468
2022-09-29T10:36:33.981Z,1520
2022-09-29T10:37:14.665Z,1548
2022-09-29T10:37:55.142Z,1556
2022-09-29T10:44:59.270Z,1540
2022-09-29T10:45:40.027Z,1564
2022-09-29T10:46:20.534Z,1584
2022-09-29T10:47:00.958Z,1596
2022-09-29T10:47:41.453Z,1604
2022-09-29T10:48:22.021Z,1612
2022-09-29T10:49:02.641Z,1620
2022-09-29T10:49:43.041Z,1636
2022-09-29T10:50:23.578Z,1656
2022-09-29T10:53:37.642Z,1684
2022-09-29T10:54:18.449Z,1704
2022-09-29T10:54:58.723Z,1704
2022-09-29T10:55:39.348Z,1692
2022-09-29T10:57:00.653Z,1688
2022-09-29T10:57:41.389Z,1696
2022-09-29T10:59:56.272Z,1740
2022-09-29T11:00:36.797Z,1708
2022-09-29T11:01:17.448Z,1432
2022-09-29T11:01:57.997Z,1612
2022-09-29T11:02:38.705Z,1460
2022-09-29T11:03:19.256Z,1292
2022-09-29T11:08:09.968Z,1624
2022-09-29T11:08:50.520Z,1344
2022-09-29T11:14:03.865Z,1276
2022-09-29T11:14:45.421Z,1280
2022-09-29T11:15:26.404Z,1300
2022-09-29T11:16:07.978Z,1320
2022-09-29T11:19:33.766Z,1232
2022-09-29T11:20:14.881Z,1232
2022-09-29T11:20:56.928Z,1232
2022-09-29T11:21:38.889Z,1232
2022-09-29T11:23:43.550Z,1244
2022-09-29T11:24:24.652Z,1208
2022-09-29T11:25:05.684Z,1208
2022-09-29T11:25:47.823Z,1212
2022-09-29T11:28:33.057Z,1268
2022-09-29T11:29:13.182Z,1252
2022-09-29T11:29:55.222Z,1220
2022-09-29T11:30:36.418Z,1192
2022-09-29T11:31:18.071Z,1164
2022-09-29T11:36:19.876Z,1448
2022-09-29T11:37:40.935Z,1320
2022-09-29T11:38:21.433Z,1320
2022-09-29T11:39:01.950Z,1348
2022-09-29T11:39:42.545Z,1324
2022-09-29T11:40:23.061Z,1324
2022-09-29T11:41:03.622Z,1328
2022-09-29T11:41:44.177Z,1336
2022-09-29T11:42:24.716Z,1344
2022-09-29T11:49:09.983Z,1324
2022-09-29T11:49:50.460Z,1336
2022-09-29T11:50:31.014Z,1344
2022-09-29T11:51:11.546Z,1344
2022-09-29T11:51:52.017Z,1360
2022-09-29T11:52:34.021Z,1368
2022-09-29T11:53:14.601Z,1384
2022-09-29T12:34:10.057Z,2072
2022-09-29T12:34:50.750Z,2084
2022-09-29T12:35:31.534Z,2108
2022-09-29T12:36:12.147Z,2128
2022-09-29T12:36:52.694Z,2148
2022-09-29T12:37:33.479Z,2164
2022-09-29T12:38:14.088Z,2168
2022-09-29T12:42:19.807Z,2056
2022-09-29T12:43:01.426Z,2064
2022-09-29T12:43:42.113Z,2064
2022-09-29T12:44:22.821Z,2064
2022-09-29T12:45:05.871Z,2056
2022-09-29T12:45:44.105Z,2068
2022-09-29T12:49:49.452Z,2000
2022-09-29T12:50:30.670Z,1944
2022-09-29T12:51:12.305Z,1864
2022-09-29T12:51:52.964Z,1768
2022-09-29T12:52:35.203Z,1716
2022-09-29T12:56:39.531Z,1616
2022-09-29T12:57:20.009Z,1592
2022-09-29T12:59:41.006Z,1548
2022-09-29T13:00:21.391Z,1512
2022-09-29T13:01:01.944Z,1472
2022-09-29T13:01:42.529Z,1428
2022-09-29T13:02:23.114Z,1380
2022-09-29T13:03:03.581Z,1356
2022-09-29T13:06:28.208Z,1236
2022-09-29T13:07:08.925Z,1228
2022-09-29T13:07:49.867Z,1196
2022-09-29T13:08:30.463Z,1080
2022-09-29T13:09:10.993Z,908
2022-09-29T13:09:51.556Z,888
2022-09-29T13:10:33.446Z,868
2022-09-29T13:14:23.554Z,800
2022-09-29T13:15:04.194Z,788
2022-09-29T13:15:46.249Z,776
2022-09-29T13:16:25.869Z,764
2022-09-29T13:17:07.007Z,744
2022-09-29T13:17:48.527Z,724
2022-09-29T13:18:28.383Z,700
2022-09-29T13:20:33.854Z,652
2022-09-29T13:21:15.065Z,648
2022-09-29T13:21:55.257Z,680
2022-09-29T13:22:35.914Z,628
2022-09-29T13:23:18.266Z,624
2022-09-29T13:27:38.551Z,592
2022-09-29T13:28:18.956Z,596
2022-09-29T13:28:59.924Z,596
2022-09-29T13:29:40.906Z,612
2022-09-29T13:30:21.771Z,624
2022-09-29T13:31:04.224Z,604
2022-09-29T13:35:08.307Z,592
2022-09-29T13:35:48.797Z,592
2022-09-29T13:36:29.585Z,600
2022-09-29T13:37:10.154Z,604
2022-09-29T13:37:51.587Z,608
2022-09-29T13:38:32.900Z,612
2022-09-29T13:41:58.438Z,604
2022-09-29T13:42:39.268Z,604
2022-09-29T13:43:20.915Z,608
2022-09-29T13:44:01.377Z,604
2022-09-29T13:44:41.978Z,600
2022-09-29T13:45:22.604Z,592
2022-09-29T13:50:48.068Z,592
2022-09-29T13:51:28.636Z,596
2022-09-29T13:52:09.080Z,596
2022-09-29T13:52:49.635Z,596
2022-09-29T13:53:30.188Z,596
2022-09-29T13:54:10.624Z,596
2022-09-29T13:54:51.158Z,596
2022-09-29T13:55:32.267Z,592
2022-09-29T13:56:12.731Z,592
2022-09-29T14:02:34.389Z,612
2022-09-29T14:03:14.899Z,612
2022-09-29T14:03:55.451Z,612
2022-09-29T14:04:37.833Z,620
2022-09-29T14:05:16.438Z,620
2022-09-29T14:05:56.918Z,628
2022-09-29T14:06:40.966Z,632
2022-09-29T14:07:17.986Z,640
2022-09-29T14:07:58.563Z,644
2022-09-29T14:08:39.189Z,644
2022-09-29T14:15:24.536Z,676
2022-09-29T14:16:05.180Z,680
2022-09-29T14:16:45.649Z,688
2022-09-29T14:17:26.177Z,696
2022-09-29T14:18:06.707Z,700
2022-09-29T14:18:47.237Z,708
2022-09-29T14:19:27.914Z,712
2022-09-29T14:20:08.365Z,716
2022-09-29T14:20:48.968Z,720
2022-09-29T14:27:34.317Z,864
2022-09-29T14:28:14.905Z,872
2022-09-29T14:28:55.413Z,904
2022-09-29T14:29:35.972Z,868
2022-09-29T14:30:16.464Z,820
2022-09-29T14:30:57.041Z,796
2022-09-29T14:31:37.526Z,788
2022-09-29T14:32:18.067Z,796
2022-09-29T14:32:58.600Z,792
2022-09-29T14:33:39.187Z,796
2022-09-29T14:40:21.271Z,1088
2022-09-29T14:41:01.836Z,1100
2022-09-29T14:41:42.271Z,1108
2022-09-29T14:42:22.807Z,1108
2022-09-29T14:43:03.261Z,1100
2022-09-29T14:43:43.853Z,1088
2022-09-29T14:44:24.317Z,1080
2022-09-29T14:47:58.638Z,1144
2022-09-29T14:48:39.089Z,1208
2022-09-29T14:49:19.791Z,1272
2022-09-29T14:50:00.382Z,1276
2022-09-29T14:54:20.909Z,1032
2022-09-29T14:55:01.436Z,936
2022-09-29T14:55:41.999Z,912
2022-09-29T14:56:23.356Z,976
2022-09-29T14:57:03.973Z,1024
2022-09-29T14:57:44.413Z,1068
2022-09-29T14:58:25.037Z,876
2022-09-29T15:04:30.256Z,820
2022-09-29T15:05:10.835Z,816
2022-09-29T15:08:24.784Z,768
2022-09-29T15:09:05.493Z,760
2022-09-29T15:09:46.190Z,756
2022-09-29T15:10:26.501Z,744
2022-09-29T15:11:48.255Z,732
2022-09-29T15:12:28.811Z,728
2022-09-29T15:13:09.391Z,732
2022-09-29T15:13:54.518Z,728
2022-09-29T15:17:09.265Z,808
2022-09-29T15:17:49.696Z,792
2022-09-29T15:18:30.713Z,732
2022-09-29T15:19:11.953Z,728
2022-09-29T15:19:55.768Z,780
2022-09-29T15:20:33.514Z,776
2022-09-29T15:21:14.216Z,776
2022-09-29T15:26:39.584Z,672
2022-09-29T15:27:21.017Z,644
2022-09-29T15:28:01.525Z,652
2022-09-29T15:28:42.016Z,652
2022-09-29T15:29:22.896Z,632
2022-09-29T15:30:03.221Z,628
2022-09-29T15:30:43.876Z,612
2022-09-29T15:36:09.317Z,552
2022-09-29T15:36:49.852Z,556
2022-09-29T15:37:30.310Z,564
2022-09-29T15:38:11.558Z,568
2022-09-29T15:38:52.052Z,568
2022-09-29T15:39:32.633Z,552
2022-09-29T15:40:13.231Z,548
2022-09-29T15:40:53.848Z,544
2022-09-29T15:46:59.113Z,588
2022-09-29T15:47:39.687Z,584
2022-09-29T15:48:20.375Z,568
2022-09-29T15:49:00.928Z,572
2022-09-29T15:49:41.373Z,560
2022-09-29T15:50:21.957Z,572
2022-09-29T15:51:02.752Z,584
2022-09-29T15:51:43.302Z,584
2022-09-29T15:52:23.854Z,584
2022-09-29T15:57:49.062Z,552
2022-09-29T15:58:29.998Z,548
2022-09-29T15:59:10.651Z,540
2022-09-29T15:59:51.542Z,536
2022-09-29T16:00:32.153Z,532
2022-09-29T16:01:13.739Z,528
2022-09-29T16:01:57.114Z,520
2022-09-29T16:05:59.369Z,496
2022-09-29T16:06:40.038Z,492
2022-09-29T16:07:20.689Z,488
2022-09-29T16:08:01.376Z,484
2022-09-29T16:08:41.846Z,484
2022-09-29T16:09:22.594Z,480
2022-09-29T16:10:03.050Z,476
2022-09-29T16:10:44.497Z,472
2022-09-29T16:15:46.043Z,440
2022-09-29T16:16:26.141Z,436
2022-09-29T16:17:07.407Z,432
2022-09-29T16:17:48.875Z,428
2022-09-29T16:18:29.199Z,420
2022-09-29T16:19:09.821Z,416
2022-09-29T16:24:26.364Z,360
2022-09-29T16:25:06.883Z,356
2022-09-29T16:25:47.442Z,352
2022-09-29T16:26:27.895Z,348
2022-09-29T16:27:11.115Z,344
2022-09-29T16:27:50.045Z,340
2022-09-29T16:28:33.793Z,332
2022-09-29T16:31:16.736Z,312
2022-09-29T16:31:57.227Z,308
2022-09-29T16:32:42.185Z,300
2022-09-29T16:33:18.311Z,300
2022-09-29T16:33:59.886Z,296
2022-09-29T16:34:40.621Z,288
2022-09-29T16:36:59.583Z,272
2022-09-29T16:37:40.160Z,268
2022-09-29T16:38:20.587Z,264
2022-09-29T16:39:01.190Z,260
2022-09-29T16:39:41.591Z,256
2022-09-29T16:40:22.061Z,252
2022-09-29T16:47:07.037Z,208
2022-09-29T16:47:47.591Z,208
2022-09-29T16:48:28.041Z,204
2022-09-29T16:49:08.580Z,200
2022-09-29T16:49:49.104Z,196
2022-09-29T16:50:29.604Z,192
2022-09-29T16:51:21.642Z,184
2022-09-29T16:53:43.181Z,172
2022-09-29T16:54:23.685Z,164
2022-09-29T16:55:04.831Z,160
2022-09-29T16:55:45.382Z,160
2022-09-29T16:56:25.804Z,156
2022-09-29T16:57:06.277Z,148
2022-09-29T16:57:46.756Z,144
2022-09-29T16:58:27.276Z,140
2022-09-29T16:59:07.752Z,136
2022-09-29T17:05:53.004Z,88
2022-09-29T17:06:33.528Z,84
2022-09-29T17:07:14.049Z,80
2022-09-29T17:07:54.570Z,76
2022-09-29T17:08:35.021Z,72
2022-09-29T17:09:15.554Z,68
2022-09-29T17:09:55.976Z,64
2022-09-29T17:10:36.468Z,60
2022-09-29T17:11:16.925Z,56
2022-09-29T17:11:57.424Z,52
2022-09-29T17:12:37.878Z,48
2022-09-29T17:20:03.446Z,20
2022-09-29T17:20:43.981Z,20
2022-09-29T17:21:24.483Z,20
2022-09-29T17:22:04.973Z,16
2022-09-29T17:22:45.447Z,16
2022-09-29T17:23:26.097Z,12
2022-09-29T17:24:06.824Z,12
2022-09-29T17:24:47.328Z,12
2022-09-29T17:25:27.870Z,12
2022-09-29T17:32:49.901Z,4
2022-09-29T17:33:30.362Z,0
2022-09-29T17:34:10.865Z,0
2022-09-29T17:34:51.322Z,4
2022-09-29T17:35:31.834Z,4
2022-09-29T17:36:12.321Z,0
2022-09-29T17:36:52.810Z,0
2022-09-29T17:37:33.240Z,0
2022-09-29T17:38:13.716Z,0
2022-09-29T17:38:54.203Z,0
2022-09-29T17:39:34.677Z,0
2022-09-29T17:46:19.708Z,0
2022-09-29T17:47:11.005Z,0
2022-09-29T17:47:40.692Z,0
2022-09-29T17:49:54.784Z,0
2022-09-29T17:50:36.095Z,0
2022-09-29T17:51:16.585Z,0
2022-09-29T17:51:57.031Z,0
2022-09-29T17:52:37.538Z,0
2022-09-29T17:53:18.099Z,0
2022-09-29T18:34:34.775Z,0
2022-09-29T18:35:15.218Z,0
2022-09-29T18:35:55.791Z,0
2022-09-29T18:36:36.243Z,0
2022-09-29T18:37:16.747Z,0
2022-09-29T18:37:57.233Z,0
2022-09-29T18:38:37.689Z,0
2022-09-29T18:39:18.235Z,0
2022-09-29T18:39:58.734Z,0
2022-09-29T18:40:39.198Z,0
2022-09-29T18:41:19.720Z,0
2022-09-29T18:48:44.961Z,0
2022-09-29T18:49:25.428Z,0
2022-09-29T18:50:06.009Z,0
2022-09-29T18:50:46.478Z,0
2022-09-29T18:51:26.954Z,0
2022-09-29T18:52:07.422Z,0
2022-09-29T18:52:47.985Z,0
2022-09-29T18:53:28.461Z,0
2022-09-29T18:54:08.976Z,0
2022-09-29T18:54:49.532Z,0
2022-09-29T19:02:15.097Z,0
2022-09-29T19:02:55.583Z,0
2022-09-29T19:03:35.915Z,0
2022-09-29T19:04:16.438Z,0
2022-09-29T19:04:57.010Z,0
2022-09-29T19:05:37.430Z,0
2022-09-29T19:06:26.750Z,0
2022-09-29T19:07:07.285Z,0
2022-09-29T19:07:47.894Z,0
2022-09-29T19:08:28.309Z,0
2022-09-29T19:09:08.991Z,0
2022-09-29T19:09:49.424Z,0
2022-09-29T19:10:29.826Z,0
2022-09-29T19:17:14.885Z,0
2022-09-29T19:17:55.379Z,0
2022-09-29T19:18:35.916Z,0
2022-09-29T19:19:16.475Z,0
2022-09-29T19:19:56.939Z,0
2022-09-29T19:20:37.612Z,0
2022-09-29T19:21:18.167Z,0
2022-09-29T19:21:58.620Z,0
2022-09-29T19:22:39.102Z,0
2022-09-29T19:23:19.626Z,0
2022-09-29T19:30:31.337Z,0
2022-09-29T19:31:11.886Z,0
2022-09-29T19:31:52.372Z,0
2022-09-29T19:32:32.760Z,0
2022-09-29T19:33:13.257Z,0
2022-09-29T19:33:53.742Z,0
2022-09-29T19:35:14.736Z,0
2022-09-29T19:35:55.191Z,0
2022-09-29T19:36:35.651Z,0
2022-09-29T19:44:00.897Z,0
2022-09-29T19:44:41.436Z,0
2022-09-29T19:45:21.889Z,0
2022-09-29T19:46:02.391Z,0
2022-09-29T19:46:42.901Z,0
2022-09-29T19:48:03.790Z,0
2022-09-29T19:48:44.285Z,0
2022-09-29T19:49:24.750Z,0
2022-09-29T19:50:05.322Z,0
2022-09-29T19:50:45.792Z,0
2022-09-29T19:51:26.293Z,0
2022-09-29T19:58:11.309Z,0
2022-09-29T19:58:51.801Z,0
2022-09-29T19:59:32.336Z,0
2022-09-29T20:00:12.770Z,0
2022-09-29T20:00:53.266Z,0
2022-09-29T20:01:33.817Z,0
2022-09-29T20:02:14.239Z,0
2022-09-29T20:03:35.284Z,0
2022-09-29T20:04:15.802Z,0
2022-09-29T20:11:41.114Z,0
2022-09-29T20:12:21.633Z,0
2022-09-29T20:13:02.196Z,0